createdAt,value
2019-04-14T00:00:49.465Z,51.75
2019-04-14T00:03:36.922Z,51.92
2019-04-14T00:06:04.845Z,51.99
2019-04-14T00:08:32.614Z,52.04
2019-04-14T00:10:59.472Z,52.42
2019-04-14T00:13:26.267Z,52.08
2019-04-14T00:15:53.824Z,52.23
2019-04-14T00:18:21.530Z,52.37
2019-04-14T00:20:49.169Z,52.32
2019-04-14T00:23:15.854Z,52.48
2019-04-14T00:25:43.403Z,52.36
2019-04-14T00:28:10.079Z,52.39
2019-04-14T00:30:36.688Z,52.16
2019-04-14T00:33:04.643Z,52.38
2019-04-14T00:35:58.020Z,52.45
2019-04-14T00:38:28.359Z,52.54
2019-04-14T00:41:09.388Z,52.53
2019-04-14T00:43:59.741Z,52.42
2019-04-14T00:46:45.891Z,52.48
2019-04-14T00:49:13.514Z,52.41
2019-04-14T00:51:41.232Z,52.65
2019-04-14T00:54:08.858Z,52.62
2019-04-14T00:56:36.690Z,52.67
2019-04-14T00:59:03.506Z,52.89
2019-04-14T01:01:30.821Z,53.07
2019-04-14T01:03:57.517Z,53.32
2019-04-14T01:06:25.072Z,53.41
2019-04-14T01:08:51.719Z,53.66
2019-04-14T01:11:18.343Z,53.79
2019-04-14T01:13:46.156Z,53.92
2019-04-14T01:16:17.418Z,53.91
2019-04-14T01:18:41.512Z,54.04
2019-04-14T01:21:08.928Z,54.21
2019-04-14T01:23:36.845Z,54.41
2019-04-14T01:26:04.929Z,54.48
2019-04-14T01:28:32.892Z,54.75
2019-04-14T01:30:59.642Z,54.68
2019-04-14T01:33:27.268Z,54.72
2019-04-14T01:35:55.208Z,54.89
2019-04-14T01:38:23.234Z,55.03
2019-04-14T01:40:51.016Z,55.23
2019-04-14T01:43:18.842Z,55.35
2019-04-14T01:45:58.113Z,55.70
2019-04-14T01:48:14.827Z,55.55
2019-04-14T01:51:13.531Z,55.84
2019-04-14T01:53:58.194Z,56.01
2019-04-14T01:56:42.951Z,55.98
2019-04-14T01:59:10.766Z,56.24
2019-04-14T02:01:38.961Z,56.29
2019-04-14T02:04:05.668Z,56.58
2019-04-14T02:06:33.346Z,56.79
2019-04-14T02:09:01.168Z,56.92
2019-04-14T02:11:29.087Z,57.08
2019-04-14T02:13:57.137Z,57.28
2019-04-14T02:16:32.782Z,57.37
2019-04-14T02:18:54.073Z,57.53
2019-04-14T02:21:21.597Z,57.73
2019-04-14T02:23:49.676Z,58.06
2019-04-14T02:26:17.560Z,58.18
2019-04-14T02:28:44.344Z,58.36
2019-04-14T02:31:24.883Z,58.66
2019-04-14T02:34:13.017Z,58.88
2019-04-14T02:39:07.193Z,59.21
2019-04-14T02:44:04.613Z,59.65
2019-04-14T02:46:31.398Z,60.08
2019-04-14T02:48:58.392Z,60.41
2019-04-14T02:51:26.974Z,60.57
2019-04-14T02:56:23.843Z,61.02
2019-04-14T02:58:51.986Z,61.13
2019-04-14T03:03:54.260Z,61.43
2019-04-14T03:06:14.646Z,61.73
2019-04-14T03:11:09.348Z,61.93
2019-04-14T03:13:58.442Z,61.86
2019-04-14T03:16:13.747Z,62.06
2019-04-14T03:19:08.865Z,62.01
2019-04-14T03:22:18.399Z,62.15
2019-04-14T03:24:46.615Z,62.30
2019-04-14T03:27:43.865Z,62.21
2019-04-14T03:30:54.624Z,62.23
2019-04-14T03:35:52.508Z,62.29
2019-04-14T03:37:51.096Z,62.35
2019-04-14T03:40:18.223Z,62.26
2019-04-14T03:42:49.387Z,62.53
2019-04-14T03:45:16.516Z,62.49
2019-04-14T03:47:57.761Z,62.43
2019-04-14T03:50:11.656Z,62.65
2019-04-14T03:54:57.009Z,62.76
2019-04-14T03:57:10.344Z,62.89
2019-04-14T03:59:37.156Z,62.94
2019-04-14T04:02:03.779Z,63.08
2019-04-14T04:04:31.498Z,63.09
2019-04-14T04:06:59.516Z,63.08
2019-04-14T04:09:49.642Z,63.79
2019-04-14T04:12:16.378Z,63.32
2019-04-14T04:14:44.109Z,63.18
2019-04-14T04:17:34.046Z,63.31
2019-04-14T04:20:19.663Z,63.35
2019-04-14T04:23:05.900Z,63.55
2019-04-14T04:25:44.414Z,63.75
2019-04-14T04:28:30.644Z,69.05
2019-04-14T04:31:13.378Z,67.66
2019-04-14T04:33:50.174Z,67.16
2019-04-14T04:36:22.486Z,71.43
2019-04-14T04:38:55.367Z,68.93
2019-04-14T04:41:23.175Z,65.05
2019-04-14T04:43:50.025Z,64.32
2019-04-14T04:46:17.655Z,62.87
2019-04-14T04:48:57.416Z,58.74
2019-04-14T04:51:13.885Z,59.72
2019-04-14T04:53:41.882Z,58.70
2019-04-14T04:56:08.652Z,57.00
2019-04-14T04:58:35.242Z,57.88
2019-04-14T05:01:01.843Z,58.06
2019-04-14T05:03:29.629Z,57.51
2019-04-14T05:06:28.790Z,56.10
2019-04-14T05:08:59.109Z,55.57
2019-04-14T05:11:33.920Z,54.06
2019-04-14T05:14:04.396Z,54.73
2019-04-14T05:16:32.394Z,56.15
2019-04-14T05:19:14.082Z,57.63
2019-04-14T05:21:30.382Z,56.26
2019-04-14T05:23:58.051Z,57.50
2019-04-14T05:26:24.805Z,57.74
2019-04-14T05:28:52.666Z,57.91
2019-04-14T05:31:20.637Z,57.84
2019-04-14T05:33:47.540Z,56.78
2019-04-14T05:36:15.018Z,57.61
2019-04-14T05:38:42.763Z,56.81
2019-04-14T05:41:09.572Z,55.35
2019-04-14T05:43:45.016Z,57.83
2019-04-14T05:46:05.557Z,55.22
2019-04-14T05:48:35.697Z,55.36
2019-04-14T05:51:02.496Z,56.20
2019-04-14T05:53:30.584Z,57.34
2019-04-14T05:55:57.233Z,58.43
2019-04-14T05:58:23.857Z,58.71
2019-04-14T06:00:51.739Z,59.82
2019-04-14T06:03:19.102Z,62.22
2019-04-14T06:05:45.827Z,60.81
2019-04-14T06:08:12.455Z,60.13
2019-04-14T06:10:39.059Z,60.70
2019-04-14T06:13:05.676Z,60.57
2019-04-14T06:15:32.957Z,61.18
2019-04-14T06:17:59.553Z,60.00
2019-04-14T06:20:26.166Z,60.43
2019-04-14T06:22:52.768Z,60.58
2019-04-14T06:25:19.359Z,60.22
2019-04-14T06:27:45.967Z,60.13
2019-04-14T06:30:35.176Z,60.03
2019-04-14T06:33:06.703Z,60.02
2019-04-14T06:36:04.719Z,60.61
2019-04-14T06:38:33.364Z,59.50
2019-04-14T06:41:11.512Z,59.01
2019-04-14T06:43:48.370Z,59.41
2019-04-14T06:46:06.651Z,59.46
2019-04-14T06:48:33.259Z,59.43
2019-04-14T06:50:59.883Z,59.18
2019-04-14T06:53:26.494Z,59.55
2019-04-14T06:55:55.045Z,60.85
2019-04-14T06:58:21.832Z,58.86
2019-04-14T07:00:48.469Z,60.75
2019-04-14T07:03:15.072Z,57.98
2019-04-14T07:05:41.687Z,58.69
2019-04-14T07:08:08.328Z,57.32
2019-04-14T07:10:35.045Z,56.49
2019-04-14T07:13:01.662Z,56.88
2019-04-14T07:15:28.302Z,57.11
2019-04-14T07:17:54.988Z,57.15
2019-04-14T07:20:21.658Z,57.13
2019-04-14T07:22:48.372Z,57.04
2019-04-14T07:25:16.249Z,57.59
2019-04-14T07:27:42.882Z,56.52
2019-04-14T07:30:19.404Z,56.35
2019-04-14T07:33:02.357Z,56.18
2019-04-14T07:35:46.890Z,56.31
2019-04-14T07:38:23.902Z,55.67
2019-04-14T07:41:10.039Z,55.16
2019-04-14T07:44:05.388Z,54.73
2019-04-14T07:46:51.634Z,54.34
2019-04-14T07:49:43.889Z,54.74
2019-04-14T07:52:38.904Z,53.81
2019-04-14T07:55:16.758Z,52.71
2019-04-14T07:58:01.767Z,53.03
2019-04-14T08:00:46.733Z,51.86
2019-04-14T08:03:48.288Z,51.29
2019-04-14T08:06:15.371Z,50.35
2019-04-14T08:08:42.079Z,49.21
2019-04-14T08:11:08.699Z,49.54
2019-04-14T08:13:35.485Z,49.21
2019-04-14T08:16:02.183Z,49.46
2019-04-14T08:18:28.837Z,48.47
2019-04-14T08:20:55.549Z,49.29
2019-04-14T08:23:22.237Z,49.18
2019-04-14T08:25:48.978Z,48.68
2019-04-14T08:28:15.705Z,48.68
2019-04-14T08:30:42.329Z,48.83
2019-04-14T08:33:09.044Z,48.67
2019-04-14T08:35:35.658Z,48.73
2019-04-14T08:38:02.284Z,47.99
2019-04-14T08:40:29.071Z,47.69
2019-04-14T08:43:13.088Z,47.38
2019-04-14T08:46:07.834Z,45.80
2019-04-14T08:48:52.621Z,45.66
2019-04-14T08:51:26.667Z,45.22
2019-04-14T08:54:18.854Z,44.81
2019-04-14T08:57:23.092Z,43.34
2019-04-14T09:00:00.049Z,42.22
2019-04-14T09:02:44.616Z,42.55
2019-04-14T09:05:29.236Z,43.16
2019-04-14T09:08:05.543Z,43.99
2019-04-14T09:10:35.899Z,43.80
2019-04-14T09:13:02.514Z,44.37
2019-04-14T09:15:29.564Z,44.01
2019-04-14T09:17:56.185Z,43.73
2019-04-14T09:20:22.828Z,43.90
2019-04-14T09:22:49.434Z,43.84
2019-04-14T09:25:17.390Z,43.61
2019-04-14T09:27:44.099Z,43.22
2019-04-14T09:30:10.840Z,43.52
2019-04-14T09:32:37.465Z,44.24
2019-04-14T09:35:04.285Z,44.22
2019-04-14T09:37:30.916Z,44.47
2019-04-14T09:39:57.553Z,44.35
2019-04-14T09:42:24.196Z,44.48
2019-04-14T09:44:50.882Z,44.26
2019-04-14T09:47:17.509Z,43.77
2019-04-14T09:49:44.184Z,43.66
2019-04-14T09:52:10.794Z,42.89
2019-04-14T09:54:37.406Z,41.84
2019-04-14T09:57:04.032Z,40.75
2019-04-14T09:59:30.660Z,41.93
2019-04-14T10:01:57.299Z,42.86
2019-04-14T10:04:23.996Z,43.21
2019-04-14T10:06:50.618Z,43.90
2019-04-14T10:09:17.331Z,44.67
2019-04-14T10:11:49.003Z,45.13
2019-04-14T10:14:12.590Z,45.42
2019-04-14T10:16:39.243Z,44.62
2019-04-14T10:19:05.958Z,43.16
2019-04-14T10:21:32.592Z,40.89
2019-04-14T10:23:59.222Z,41.92
2019-04-14T10:26:25.975Z,42.39
2019-04-14T10:28:52.747Z,42.36
2019-04-14T10:31:19.447Z,42.96
2019-04-14T10:33:46.071Z,43.37
2019-04-14T10:36:12.687Z,42.69
2019-04-14T10:38:39.319Z,42.54
2019-04-14T10:41:06.499Z,43.06
2019-04-14T10:43:33.175Z,43.35
2019-04-14T10:45:59.806Z,42.63
2019-04-14T10:48:26.529Z,42.65
2019-04-14T10:50:53.126Z,42.27
2019-04-14T10:53:19.745Z,42.01
2019-04-14T10:55:46.379Z,42.38
2019-04-14T10:58:12.991Z,42.66
2019-04-14T11:00:39.587Z,42.01
2019-04-14T11:03:06.199Z,42.43
2019-04-14T11:08:18.929Z,46.58
2019-04-14T11:10:45.560Z,41.15
2019-04-14T11:13:12.177Z,41.61
2019-04-14T11:15:38.812Z,40.93
2019-04-14T11:18:05.430Z,40.34
2019-04-14T11:20:32.158Z,41.63
2019-04-14T11:23:03.610Z,40.83
2019-04-14T11:25:27.305Z,39.52
2019-04-14T11:27:53.930Z,41.50
2019-04-14T11:30:21.340Z,39.96
2019-04-14T11:33:07.403Z,39.61
2019-04-14T11:35:37.894Z,39.87
2019-04-14T11:38:23.991Z,40.05
2019-04-14T11:40:52.877Z,41.10
2019-04-14T11:43:19.572Z,42.30
2019-04-14T11:45:48.326Z,41.73
2019-04-14T11:48:15.059Z,42.05
2019-04-14T11:50:41.687Z,42.49
2019-04-14T11:53:08.394Z,42.28
2019-04-14T11:55:35.106Z,43.72
2019-04-14T11:58:01.816Z,43.45
2019-04-14T12:00:47.930Z,44.27
2019-04-14T12:03:34.099Z,43.88
2019-04-14T12:06:20.284Z,43.36
2019-04-14T12:09:06.381Z,42.49
2019-04-14T12:11:33.201Z,42.67
2019-04-14T12:13:59.827Z,42.77
2019-04-14T12:16:26.537Z,43.04
2019-04-14T12:18:53.137Z,43.23
2019-04-14T12:21:19.749Z,43.37
2019-04-14T12:23:46.373Z,43.94
2019-04-14T12:26:13.013Z,44.12
2019-04-14T12:28:40.478Z,44.15
2019-04-14T12:31:07.205Z,44.15
2019-04-14T12:33:33.819Z,43.93
2019-04-14T12:36:00.509Z,43.72
2019-04-14T12:38:27.121Z,43.71
2019-04-14T12:40:56.255Z,43.84
2019-04-14T12:43:45.129Z,44.03
2019-04-14T12:46:31.246Z,44.14
2019-04-14T12:49:26.189Z,44.35
2019-04-14T12:52:20.657Z,43.95
2019-04-14T12:54:39.248Z,43.82
2019-04-14T12:57:05.863Z,44.27
2019-04-14T13:02:46.911Z,44.30
2019-04-14T13:05:13.532Z,44.58
2019-04-14T13:07:40.141Z,44.58
2019-04-14T13:10:06.836Z,44.91
2019-04-14T13:12:33.519Z,44.84
2019-04-14T13:15:02.717Z,45.15
2019-04-14T13:17:54.408Z,44.91
2019-04-14T13:20:40.511Z,44.66
2019-04-14T13:23:07.131Z,44.41
2019-04-14T13:25:33.915Z,44.87
2019-04-14T13:28:00.534Z,44.77
2019-04-14T13:30:30.458Z,45.11
2019-04-14T13:32:57.049Z,45.02
2019-04-14T13:35:23.662Z,45.17
2019-04-14T13:37:50.274Z,45.30
2019-04-14T13:40:18.636Z,44.84
2019-04-14T13:42:45.291Z,45.03
2019-04-14T13:45:11.904Z,45.12
2019-04-14T13:47:38.547Z,44.74
2019-04-14T13:50:05.244Z,44.87
2019-04-14T13:52:31.873Z,44.89
2019-04-14T13:54:58.570Z,44.66
2019-04-14T13:57:25.278Z,44.30
2019-04-14T13:59:51.974Z,44.35
2019-04-14T14:02:18.606Z,44.17
2019-04-14T14:04:45.210Z,43.93
2019-04-14T14:07:11.843Z,43.97
2019-04-14T14:09:38.554Z,44.17
2019-04-14T14:12:15.597Z,43.87
2019-04-14T14:14:54.697Z,44.00
2019-04-14T14:17:39.972Z,43.87
2019-04-14T14:20:31.700Z,44.14
2019-04-14T14:23:04.872Z,44.43
2019-04-14T14:25:35.791Z,44.22
2019-04-14T14:28:02.420Z,44.85
2019-04-14T14:30:29.071Z,44.64
2019-04-14T14:32:55.786Z,44.62
2019-04-14T14:35:22.414Z,44.78
2019-04-14T14:37:49.034Z,44.69
2019-04-14T14:40:18.227Z,44.50
2019-04-14T14:42:44.842Z,44.89
2019-04-14T14:45:21.422Z,45.03
2019-04-14T14:48:07.548Z,44.99
2019-04-14T14:50:41.089Z,45.07
2019-04-14T14:53:12.356Z,45.45
2019-04-14T14:55:45.980Z,45.48
2019-04-14T14:58:12.716Z,45.33
2019-04-14T15:00:39.430Z,46.01
2019-04-14T15:03:08.059Z,45.24
2019-04-14T15:05:34.675Z,45.24
2019-04-14T15:08:01.314Z,45.44
2019-04-14T15:10:27.933Z,45.22
2019-04-14T15:12:54.678Z,45.68
2019-04-14T15:15:21.282Z,46.09
2019-04-14T15:17:47.892Z,46.38
2019-04-14T15:20:14.506Z,46.34
2019-04-14T15:22:41.107Z,46.98
2019-04-14T15:25:11.120Z,47.18
2019-04-14T15:27:37.881Z,47.40
2019-04-14T15:30:06.564Z,47.73
2019-04-14T15:32:33.312Z,48.01
2019-04-14T15:35:00.005Z,47.95
2019-04-14T15:37:26.723Z,48.11
2019-04-14T15:39:53.317Z,48.34
2019-04-14T15:42:19.947Z,48.30
2019-04-14T15:44:46.565Z,48.71
2019-04-14T15:47:13.448Z,48.73
2019-04-14T15:49:40.059Z,48.67
2019-04-14T15:52:06.680Z,48.77
2019-04-14T15:54:33.290Z,48.96
2019-04-14T16:00:04.548Z,48.78
2019-04-14T16:02:38.910Z,48.68
2019-04-14T16:05:28.378Z,48.75
2019-04-14T16:08:03.935Z,48.59
2019-04-14T16:10:44.994Z,48.85
2019-04-14T16:13:33.350Z,49.27
2019-04-14T16:16:22.357Z,49.65
2019-04-14T16:18:54.489Z,50.49
2019-04-14T16:21:21.103Z,51.27
2019-04-14T16:23:50.835Z,51.24
2019-04-14T16:26:45.051Z,51.55
2019-04-14T16:29:21.371Z,51.26
2019-04-14T16:32:10.300Z,51.55
2019-04-14T16:34:42.343Z,51.47
2019-04-14T16:37:08.969Z,50.76
2019-04-14T16:39:35.700Z,50.94
2019-04-14T16:42:02.359Z,51.01
2019-04-14T16:44:29.086Z,51.07
2019-04-14T16:46:55.738Z,51.16
2019-04-14T16:49:22.330Z,51.38
2019-04-14T16:51:58.046Z,51.18
2019-04-14T16:54:39.433Z,51.27
2019-04-14T16:57:24.268Z,51.43
2019-04-14T16:59:51.050Z,51.42
2019-04-14T17:02:17.764Z,51.62
2019-04-14T17:04:44.399Z,51.43
2019-04-14T17:07:11.288Z,51.64
2019-04-14T17:09:37.948Z,51.71
2019-04-14T17:12:04.768Z,51.76
2019-04-14T17:15:02.807Z,51.79
2019-04-14T17:17:47.585Z,51.88
2019-04-14T17:20:44.846Z,51.78
2019-04-14T17:23:29.214Z,56.97
2019-04-14T17:26:01.298Z,58.33
2019-04-14T17:28:53.700Z,55.36
2019-04-14T17:31:24.041Z,53.84
2019-04-14T17:33:56.846Z,51.63
2019-04-14T17:36:37.445Z,51.85
2019-04-14T17:39:10.186Z,52.06
2019-04-14T17:42:08.499Z,52.75
2019-04-14T17:44:42.483Z,53.36
2019-04-14T17:47:27.333Z,53.80
2019-04-14T17:50:00.010Z,54.28
2019-04-14T17:52:29.527Z,54.51
2019-04-14T17:55:24.853Z,54.84
2019-04-14T17:57:55.855Z,55.08
2019-04-14T18:00:28.000Z,55.37
2019-04-14T18:02:58.937Z,55.73
2019-04-14T18:05:46.902Z,56.07
2019-04-14T18:08:23.073Z,56.12
2019-04-14T18:10:54.991Z,56.15
2019-04-14T18:13:28.331Z,56.32
2019-04-14T18:16:05.076Z,56.77
2019-04-14T18:18:51.206Z,58.17
2019-04-14T18:21:17.913Z,58.41
2019-04-14T18:23:44.543Z,58.83
2019-04-14T18:26:11.184Z,58.55
2019-04-14T18:28:43.410Z,58.91
2019-04-14T18:31:38.503Z,58.92
2019-04-14T18:34:30.642Z,59.13
2019-04-14T18:37:05.288Z,59.69
2019-04-14T18:40:00.773Z,60.61
2019-04-14T18:42:55.900Z,61.03
2019-04-14T18:45:30.149Z,61.58
2019-04-14T18:48:19.583Z,62.04
2019-04-14T18:51:04.369Z,62.56
2019-04-14T18:53:53.104Z,63.03
2019-04-14T18:56:45.056Z,63.38
2019-04-14T18:59:46.190Z,63.79
2019-04-14T19:02:14.378Z,64.57
2019-04-14T19:04:41.109Z,65.30
2019-04-14T19:07:07.835Z,65.70
2019-04-14T19:09:34.469Z,66.32
2019-04-14T19:12:18.996Z,66.54
2019-04-14T19:14:46.078Z,67.26
2019-04-14T19:17:35.048Z,67.59
2019-04-14T19:20:02.660Z,67.61
2019-04-14T19:22:29.437Z,67.79
2019-04-14T19:25:07.450Z,67.93
2019-04-14T19:27:25.465Z,68.14
2019-04-14T19:29:52.457Z,68.43
2019-04-14T19:32:19.364Z,68.65
2019-04-14T19:34:46.420Z,68.59
2019-04-14T19:37:13.273Z,69.01
2019-04-14T19:39:40.020Z,69.06
2019-04-14T19:42:06.677Z,69.51
2019-04-14T19:44:33.423Z,69.98
2019-04-14T19:47:00.126Z,70.32
2019-04-14T19:49:26.791Z,70.45
2019-04-14T19:51:53.410Z,70.92
2019-04-14T19:54:20.059Z,70.88
2019-04-14T19:56:46.687Z,71.27
2019-04-14T19:59:16.132Z,71.64
2019-04-14T20:01:42.808Z,71.95
2019-04-14T20:04:09.551Z,72.16
2019-04-14T20:06:36.191Z,72.13
2019-04-14T20:09:04.252Z,72.18
2019-04-14T20:11:30.915Z,72.28
2019-04-14T20:13:57.529Z,72.30
2019-04-14T20:16:58.782Z,72.38
2019-04-14T20:19:33.623Z,72.67
2019-04-14T20:22:25.587Z,73.43
2019-04-14T20:24:59.352Z,73.33
2019-04-14T20:27:33.008Z,73.73
2019-04-14T20:30:02.603Z,73.89
2019-04-14T20:32:31.252Z,74.01
2019-04-14T20:34:57.963Z,73.88
2019-04-14T20:37:24.621Z,73.75
2019-04-14T20:39:51.307Z,73.59
2019-04-14T20:42:17.934Z,73.63
2019-04-14T20:44:44.538Z,73.51
2019-04-14T20:47:11.177Z,73.67
2019-04-14T20:49:37.872Z,73.64
2019-04-14T20:52:04.499Z,73.59
2019-04-14T20:54:31.105Z,73.78
2019-04-14T20:56:57.766Z,73.92
2019-04-14T20:59:24.364Z,73.95
2019-04-14T21:01:59.796Z,74.09
2019-04-14T21:04:45.915Z,74.24
2019-04-14T21:07:40.314Z,74.24
2019-04-14T21:10:20.453Z,73.95
2019-04-14T21:13:02.420Z,74.09
2019-04-14T21:15:36.264Z,74.20
2019-04-14T21:18:37.436Z,74.15
2019-04-14T21:21:20.526Z,74.18
2019-04-14T21:23:51.060Z,73.89
2019-04-14T21:26:35.216Z,74.00
2019-04-14T21:29:11.794Z,73.84
2019-04-14T21:31:56.135Z,73.68
2019-04-14T21:34:51.272Z,73.81
2019-04-14T21:37:40.917Z,73.88
2019-04-14T21:40:17.739Z,73.93
2019-04-14T21:42:44.519Z,74.02
2019-04-14T21:45:11.163Z,73.94
2019-04-14T21:47:37.821Z,74.31
2019-04-14T21:50:04.516Z,74.39
2019-04-14T21:52:49.950Z,74.46
2019-04-14T21:55:17.962Z,74.45
2019-04-14T21:58:07.357Z,74.32
2019-04-14T22:00:57.303Z,74.33
2019-04-14T22:03:36.808Z,74.17
2019-04-14T22:06:15.727Z,74.18
2019-04-14T22:08:46.583Z,73.80
2019-04-14T22:11:17.472Z,73.85
2019-04-14T22:13:44.202Z,73.98
2019-04-14T22:16:10.839Z,74.00
2019-04-14T22:18:37.469Z,73.92
2019-04-14T22:21:04.187Z,73.96
2019-04-14T22:23:30.787Z,74.06
2019-04-14T22:25:57.435Z,73.95
2019-04-14T22:28:24.107Z,73.92
2019-04-14T22:30:50.733Z,73.79
2019-04-14T22:33:17.328Z,73.75
2019-04-14T22:35:43.966Z,73.77
2019-04-14T22:38:10.617Z,73.79
2019-04-14T22:40:37.220Z,73.54
2019-04-14T22:43:03.827Z,73.72
2019-04-14T22:45:31.519Z,73.97
2019-04-14T22:47:58.156Z,73.74
2019-04-14T22:50:24.822Z,73.78
2019-04-14T22:52:51.461Z,73.88
2019-04-14T22:55:18.034Z,74.06
2019-04-14T22:57:44.691Z,74.21
2019-04-14T23:00:16.535Z,74.33
2019-04-14T23:02:59.709Z,74.47
2019-04-14T23:05:44.653Z,74.35
2019-04-14T23:08:48.426Z,74.44
2019-04-14T23:11:29.232Z,74.68
2019-04-14T23:14:23.947Z,74.39
2019-04-14T23:17:19.070Z,74.66
2019-04-14T23:19:49.990Z,74.94
2019-04-14T23:22:30.884Z,74.91
2019-04-14T23:24:57.490Z,74.83
2019-04-14T23:27:24.104Z,74.88
2019-04-14T23:29:50.708Z,74.74
2019-04-14T23:32:17.327Z,74.91
2019-04-14T23:34:43.940Z,74.97
2019-04-14T23:37:10.566Z,75.09
2019-04-14T23:39:37.165Z,75.35
2019-04-14T23:42:03.774Z,75.43
2019-04-14T23:44:30.392Z,75.75
2019-04-14T23:46:56.992Z,75.88
2019-04-14T23:49:23.737Z,75.78
2019-04-14T23:51:50.322Z,75.78
2019-04-14T23:54:16.944Z,75.69
2019-04-14T23:56:43.559Z,75.33
2019-04-14T23:59:10.282Z,75.39
